x

Lake Nipissing (45152) Wave Buoy

8:00pm - Mon 1st Sep 2014 All times are CDT. -5 hours from GMT.

  • Sig Wave height 0.7ft
  • Peak Period 2s
  • Wind
    20mph, 25mph gusts
  • Sea Temp 68°f
  • Air Temp 72°f
  • Sea Pressure 1004.8mb
  • Lake Nipissing
  • Lake Nipissing

More Historic Weather Station data

Upgrade to MSW Pro to gain access to the past 30 days of data for over 8000 Wavebouys and Weather Stations around the globe.

Join Pro

Comparision Forecast

View Surf forecast
   
Mon 09/01 8:00pm 0.7ft 2s 20 25 mph 1004.8mb 68f 72f
7:00pm 0.3ft 2s 11 16 mph 1004.5mb 68f 72f
6:00pm 0.3ft 2s 7 9 mph 1005.5mb 69f 74f
5:00pm 0.3ft 2s 9 11 mph 1006.1mb 69f 76f
4:00pm 0.3ft 2s 11 16 mph 1006.4mb 69f 78f
3:00pm  -  2s 13 18 mph 1006.7mb 70f 77f
2:00pm 0.3ft 3s 7 9 mph 1008.2mb 69f 70f
1:00pm 0.3ft 2s 4
mph
1009.4mb 69f 69f
12:00pm 0.3ft 2s 7 9 mph 1010.1mb 68f 68f
11:00am 0.3ft 3s 9 11 mph 1010.7mb 68f 67f
10:00am  -  3s 4 9 mph 1012mb 68f 67f
9:00am  -  3s 7 9 mph 1012.7mb 67f 64f
8:00am  -  3s 9 11 mph 1013mb 67f 64f
7:00am  -  3s 9 11 mph 1013.3mb 67f 64f
6:00am  -  3s 7 11 mph 1013.2mb 67f 64f
5:00am 0.3ft 3s 7 9 mph 1013.6mb 67f 64f
4:00am  -  2s 7 11 mph 1013.6mb 67f 64f
3:00am  -  2s 4 7 mph 1013.8mb 67f 64f
2:00am  -  3s 4
mph
1013.6mb 67f 64f
1:00am  -  2s 7
mph
1013.4mb 67f 63f
12:00am  -  2s 2 4 mph 1013.5mb 67f 64f
Sun 08/31 11:00pm 0.3ft 2s 2 4 mph 1013.4mb 67f 64f
10:00pm 0.3ft 2s 7 9 mph 1013.7mb 67f 63f
9:00pm 0.3ft 2s 9 11 mph 1013.9mb 67f 64f
8:00pm 0.3ft 2s 9 11 mph 1013.5mb 67f 64f
7:00pm 0.3ft 2s 9 11 mph 1013mb 67f 64f
5:00pm 0.3ft 2s 7 9 mph 1012.2mb 67f 66f
4:00pm 0.3ft 2s 7 9 mph 1011.8mb 67f 65f
3:00pm 0.7ft 2s 9 11 mph 1011.6mb 67f 65f
2:00pm 1ft 2s 13 16 mph 1010.7mb 67f 66f
1:00pm 1ft 2s 13 18 mph 1010.5mb 67f 67f
12:00pm 1ft 2s 18 22 mph 1010.2mb 67f 67f
11:00am 0.7ft 2s 18 22 mph 1009.9mb 67f 69f
10:00am 0.7ft 2s 16 18 mph 1009.8mb 67f 68f
9:00am 0.3ft 2s 13 18 mph 1009.9mb 67f 69f
8:00am 0.3ft 2s 11 13 mph 1009.7mb 67f 68f
7:00am 0.3ft 2s 9 11 mph 1009.6mb 67f 68f
6:00am 0.7ft 2s 11 13 mph 1009.3mb 67f 68f
5:00am 1ft 2s 11 16 mph 1008.8mb 67f 68f
4:00am 0.7ft 2s 16 18 mph 1008.1mb 68f 68f
3:00am 0.3ft 2s 16 18 mph 1008.1mb 68f 69f
2:00am 0.3ft 2s 11 13 mph 1008.3mb 68f 70f
1:00am 0.7ft 2s 13 16 mph 1008.1mb 68f 70f
12:00am 0.3ft 2s 13 18 mph 1007.9mb 68f 71f
Sat 08/30 11:00pm  -  3s 9 13 mph 1008.3mb 68f 71f
10:00pm  -  3s 4 7 mph 1008.4mb 68f 69f
9:00pm  -  3s 4 7 mph 1009.1mb 68f 70f
8:00pm  -  3s 4 7 mph 1009.5mb 68f 69f
7:00pm  -  2s 4
mph
1009.3mb 68f 70f
6:00pm 0.3ft 3s 4 9 mph 1009.3mb 68f 71f
5:00pm 0.3ft 3s 7 9 mph 1009.7mb 68f 71f
4:00pm 0.3ft 2s 7 9 mph 1009.9mb 68f 70f
3:00pm 0.3ft 2s 7 9 mph 1010.1mb 68f 71f
2:00pm 0.3ft 2s 9
mph
1010.8mb 68f 73f
1:00pm 0.3ft 2s 13 18 mph 1011mb 68f 76f
12:00pm 0.3ft 2s 7 11 mph 1011.6mb 68f 74f
11:00am  -  3s 13 18 mph 1012.2mb 68f 73f
10:00am 0.3ft 2s 2
mph
1013.1mb 67f 69f
9:00am 0.3ft 2s 7 9 mph 1013.3mb 67f 68f
8:00am 0.3ft 3s 7 9 mph 1013.6mb 67f 65f
7:00am  -  2s 7 11 mph 1014.3mb 67f 64f
6:00am 0.3ft 2s 4 7 mph 1014.7mb 67f 65f
5:00am 0.3ft 2s 4 9 mph 1015mb 67f 66f
4:00am 0.3ft 2s 7 11 mph 1014.9mb 67f 67f
3:00am 0.3ft 2s 7 11 mph 1015mb 67f 66f
2:00am 0.7ft 2s 11 16 mph 1015.6mb 67f 67f
1:00am 0.7ft 2s 13 18 mph 1015.3mb 67f 67f
12:00am 0.7ft 2s 16 22 mph 1015.8mb 67f 67f
Fri 08/29 11:00pm 0.7ft 2s 13 18 mph 1016.2mb 67f 67f
10:00pm 0.3ft 2s 13 18 mph 1016.5mb 67f 67f
9:00pm 0.3ft 2s 9 11 mph 1017.1mb 68f 66f
8:00pm  -  3s 9 11 mph 1017.4mb 68f 67f
7:00pm 0.3ft 2s 4 7 mph 1017.7mb 68f 66f
6:00pm 0.3ft 2s 7 9 mph 1018mb 68f 67f
5:00pm 0.7ft 2s 11 16 mph 1018.4mb 68f 67f
4:00pm 0.3ft 2s 13 16 mph 1018.7mb 68f 68f
3:00pm 0.3ft 2s 9 13 mph 1019.2mb 68f 69f
2:00pm 0.3ft 3s 11 13 mph 1019.8mb 68f 69f
1:00pm 0.3ft 2s 7 11 mph 1020.3mb 68f 69f
12:00pm 0.3ft 2s 9 11 mph 1020.6mb 68f 68f
11:00am 0.3ft 3s 11 18 mph 1021.2mb 68f 67f
10:00am 0.3ft 2s 13 16 mph 1021.8mb 68f 66f
9:00am 0.3ft 2s 2 4 mph 1022.2mb 67f 62f
8:00am 0.3ft 2s 4 7 mph 1022.1mb 67f 60f
7:00am  -  3s 7
mph
1022mb 67f 60f
6:00am  -  2s 4 7 mph 1021.7mb 67f 58f
5:00am  -  2s 4
mph
1021.7mb 67f 57f
4:00am  -  3s 4 7 mph 1021.4mb 67f 58f
3:00am  -  3s 7
mph
1021.3mb 67f 58f